Time;durP1;ratioP1;P1;durP2;ratioP2;P2;SDS_P1;SDS_P2;PMS_P1;PMS_P2;Temp;Humidity;BMP_temperature;BMP_pressure;BME280_temperature;BME280_humidity;BME280_pressure;Samples;Min_cycle;Max_cycle;Signal;HPM_P1;HPM_P2
2024/03/24 00:01:23;;;;;;;2.15;1.50;;;;;;;;;;5070703;28;20074;-78
2024/03/24 00:03:48;;;;;;;1.88;1.52;;;;;;;;;;5050879;28;20035;-80
2024/03/24 00:06:14;;;;;;;3.10;1.70;;;;;;;;;;5069062;28;20090;-79
2024/03/24 00:08:39;;;;;;;2.22;1.25;;;;;;;;;;5068419;28;20911;-79
2024/03/24 00:11:05;;;;;;;3.50;1.92;;;;;;;;;;5077798;28;20040;-79
2024/03/24 00:13:31;;;;;;;2.45;1.77;;;;;;;;;;5078701;28;20054;-79
2024/03/24 00:15:57;;;;;;;5.07;2.25;;;;;;;;;;5078875;28;20073;-79
2024/03/24 00:18:23;;;;;;;3.13;2.05;;;;;;;;;;5078600;28;20107;-78
2024/03/24 00:20:48;;;;;;;2.88;1.88;;;;;;;;;;5057381;28;20032;-79
2024/03/24 00:23:13;;;;;;;2.47;1.58;;;;;;;;;;5074794;28;20497;-79
2024/03/24 00:25:39;;;;;;;2.33;1.73;;;;;;;;;;5044838;28;20032;-79
2024/03/24 00:28:05;;;;;;;3.03;2.17;;;;;;;;;;5065620;28;20060;-79
2024/03/24 00:30:31;;;;;;;2.97;1.60;;;;;;;;;;5060338;28;20047;-79
2024/03/24 00:32:57;;;;;;;1.52;1.40;;;;;;;;;;5079263;28;20039;-79
2024/03/24 00:35:22;;;;;;;2.13;1.50;;;;;;;;;;5063037;28;20036;-79
2024/03/24 00:37:49;;;;;;;2.95;1.83;;;;;;;;;;5066139;28;20521;-79
2024/03/24 00:40:15;;;;;;;3.20;2.03;;;;;;;;;;5064402;28;20049;-79
2024/03/24 00:42:40;;;;;;;1.75;1.33;;;;;;;;;;5047083;28;20115;-80
2024/03/24 00:45:07;;;;;;;2.42;1.98;;;;;;;;;;5060140;28;20520;-79
2024/03/24 00:47:33;;;;;;;2.65;1.40;;;;;;;;;;5056869;28;20052;-80
2024/03/24 00:49:58;;;;;;;2.17;1.58;;;;;;;;;;5076548;28;20036;-79
2024/03/24 00:52:24;;;;;;;2.72;2.20;;;;;;;;;;5069056;28;20036;-79
2024/03/24 00:54:49;;;;;;;3.17;1.95;;;;;;;;;;5054988;28;20047;-79
2024/03/24 00:57:14;;;;;;;1.73;1.40;;;;;;;;;;5044905;28;20041;-79
2024/03/24 00:59:40;;;;;;;1.60;1.50;;;;;;;;;;5040789;28;20036;-80
2024/03/24 01:02:06;;;;;;;2.55;0.90;;;;;;;;;;5047341;28;20082;-81
2024/03/24 01:04:31;;;;;;;3.25;1.10;;;;;;;;;;5075722;28;20032;-79
2024/03/24 01:06:57;;;;;;;3.13;1.63;;;;;;;;;;5064004;28;20107;-79
2024/03/24 01:09:22;;;;;;;3.42;2.42;;;;;;;;;;5073250;28;20032;-80
2024/03/24 01:11:47;;;;;;;2.15;1.20;;;;;;;;;;5073236;28;20032;-80
2024/03/24 01:14:13;;;;;;;2.80;1.77;;;;;;;;;;5041789;28;20037;-80
2024/03/24 01:16:38;;;;;;;3.08;1.80;;;;;;;;;;5076285;28;20031;-79
2024/03/24 01:19:04;;;;;;;1.73;1.48;;;;;;;;;;5085453;28;20416;-80
2024/03/24 01:21:29;;;;;;;4.60;2.10;;;;;;;;;;5079750;28;20110;-79
2024/03/24 01:23:56;;;;;;;3.33;1.80;;;;;;;;;;5072875;28;20078;-79
2024/03/24 01:26:22;;;;;;;2.83;1.35;;;;;;;;;;5056435;28;20122;-79
2024/03/24 01:28:47;;;;;;;2.55;1.50;;;;;;;;;;5077000;28;20424;-80
2024/03/24 01:31:13;;;;;;;1.33;1.00;;;;;;;;;;5044402;28;20029;-81
2024/03/24 01:33:39;;;;;;;1.10;0.82;;;;;;;;;;5062834;28;20037;-79
2024/03/24 01:36:04;;;;;;;2.03;1.65;;;;;;;;;;5076722;28;20047;-79
2024/03/24 01:38:30;;;;;;;1.83;1.48;;;;;;;;;;5071143;28;20036;-79
2024/03/24 01:40:55;;;;;;;2.58;2.13;;;;;;;;;;5080116;28;20122;-78
2024/03/24 01:43:20;;;;;;;2.95;2.10;;;;;;;;;;5073066;28;20040;-79
2024/03/24 01:45:46;;;;;;;3.75;2.00;;;;;;;;;;5060308;28;20044;-78
2024/03/24 01:48:11;;;;;;;2.63;1.88;;;;;;;;;;5057138;28;20040;-78
2024/03/24 01:50:38;;;;;;;2.67;1.70;;;;;;;;;;5052531;28;20037;-78
2024/03/24 01:53:04;;;;;;;0.85;0.85;;;;;;;;;;5072244;28;20389;-77
2024/03/24 01:55:29;;;;;;;1.63;1.15;;;;;;;;;;5071531;28;20031;-77
2024/03/24 01:57:55;;;;;;;2.55;1.80;;;;;;;;;;5057259;28;20658;-79
2024/03/24 02:00:21;;;;;;;4.03;2.08;;;;;;;;;;5045079;28;20248;-80
2024/03/24 02:02:46;;;;;;;2.85;1.70;;;;;;;;;;5073926;28;20063;-80
2024/03/24 02:05:12;;;;;;;3.15;1.40;;;;;;;;;;5067926;28;20044;-79
2024/03/24 02:07:37;;;;;;;2.83;1.35;;;;;;;;;;5068679;28;20124;-81
2024/03/24 02:10:03;;;;;;;0.68;0.68;;;;;;;;;;5037348;28;20052;-80
2024/03/24 02:12:29;;;;;;;3.25;1.70;;;;;;;;;;5061724;28;20032;-79
2024/03/24 02:14:54;;;;;;;1.63;1.30;;;;;;;;;;5054893;28;20066;-79
2024/03/24 02:17:19;;;;;;;3.00;1.83;;;;;;;;;;5064476;28;20048;-80
2024/03/24 02:19:45;;;;;;;1.30;1.13;;;;;;;;;;5079003;28;20420;-79
2024/03/24 02:22:10;;;;;;;2.15;1.63;;;;;;;;;;5078646;28;20127;-79
2024/03/24 02:24:36;;;;;;;2.40;1.70;;;;;;;;;;5068734;28;20127;-78
2024/03/24 02:27:01;;;;;;;1.73;1.63;;;;;;;;;;5072904;28;20051;-81
2024/03/24 02:29:26;;;;;;;3.35;1.10;;;;;;;;;;5053746;28;20082;-81
2024/03/24 02:31:52;;;;;;;2.50;1.10;;;;;;;;;;5067927;28;20035;-80
2024/03/24 02:34:17;;;;;;;1.35;1.23;;;;;;;;;;5068062;28;20037;-82
2024/03/24 02:36:42;;;;;;;2.83;1.45;;;;;;;;;;5078444;28;20050;-82
2024/03/24 02:39:08;;;;;;;2.22;1.25;;;;;;;;;;5075894;28;20067;-82
2024/03/24 02:41:34;;;;;;;2.60;1.45;;;;;;;;;;5080748;28;20055;-80
2024/03/24 02:43:59;;;;;;;1.45;1.17;;;;;;;;;;5063784;28;20031;-81
2024/03/24 02:46:25;;;;;;;3.45;1.77;;;;;;;;;;5047219;28;20114;-80
2024/03/24 02:48:50;;;;;;;0.68;0.65;;;;;;;;;;5069331;28;20061;-80
2024/03/24 02:51:16;;;;;;;3.90;1.85;;;;;;;;;;5075483;28;20036;-80
2024/03/24 02:53:41;;;;;;;2.22;1.65;;;;;;;;;;5084727;28;20040;-79
2024/03/24 02:56:09;;;;;;;2.63;1.67;;;;;;;;;;5076656;28;20040;-78
2024/03/24 02:58:35;;;;;;;0.47;0.47;;;;;;;;;;5082800;28;20115;-78
2024/03/24 03:01:00;;;;;;;3.67;1.65;;;;;;;;;;5080284;28;20060;-80
2024/03/24 03:03:26;;;;;;;2.58;1.67;;;;;;;;;;5056312;28;20040;-79
2024/03/24 03:05:51;;;;;;;2.00;1.50;;;;;;;;;;5064497;28;20052;-80
2024/03/24 03:08:17;;;;;;;2.50;1.40;;;;;;;;;;5072480;28;20579;-80
2024/03/24 03:10:42;;;;;;;2.58;1.58;;;;;;;;;;5077051;28;20033;-79
2024/03/24 03:13:08;;;;;;;2.70;1.10;;;;;;;;;;5055553;28;20047;-79
2024/03/24 03:15:33;;;;;;;5.28;2.20;;;;;;;;;;5071269;28;20056;-80
2024/03/24 03:17:59;;;;;;;1.65;1.45;;;;;;;;;;5059895;28;20503;-79
2024/03/24 03:20:24;;;;;;;2.47;1.23;;;;;;;;;;5048723;28;20036;-79
2024/03/24 03:22:50;;;;;;;1.63;1.30;;;;;;;;;;5076084;28;20036;-79
2024/03/24 03:25:15;;;;;;;2.65;1.40;;;;;;;;;;5082672;28;20036;-80
2024/03/24 03:27:42;;;;;;;2.10;1.50;;;;;;;;;;5077216;28;20043;-80
2024/03/24 03:30:08;;;;;;;1.60;1.50;;;;;;;;;;5082141;27;20032;-78
2024/03/24 03:32:36;;;;;;;0.60;0.43;;;;;;;;;;5068720;28;20066;-80
2024/03/24 03:35:02;;;;;;;1.02;0.93;;;;;;;;;;5061824;28;20036;-81
2024/03/24 03:37:28;;;;;;;1.42;1.30;;;;;;;;;;5050799;28;20117;-81
2024/03/24 03:39:54;;;;;;;0.65;0.55;;;;;;;;;;5064120;28;20039;-80
2024/03/24 03:42:19;;;;;;;1.85;1.48;;;;;;;;;;5075517;28;20524;-81
2024/03/24 03:44:52;;;;;;;2.22;1.40;;;;;;;;;;5081784;28;20055;-80
2024/03/24 03:47:18;;;;;;;1.30;0.93;;;;;;;;;;5081654;28;20036;-80
2024/03/24 03:49:50;;;;;;;2.03;1.40;;;;;;;;;;5081698;28;20032;-81
2024/03/24 03:52:25;;;;;;;2.85;1.67;;;;;;;;;;5055551;28;20045;-78
2024/03/24 03:54:51;;;;;;;2.38;1.50;;;;;;;;;;5031422;28;20578;-79
2024/03/24 03:57:17;;;;;;;3.72;1.55;;;;;;;;;;5082401;28;20032;-80
2024/03/24 03:59:42;;;;;;;1.30;1.20;;;;;;;;;;5077288;28;20084;-78
2024/03/24 04:02:07;;;;;;;2.97;1.83;;;;;;;;;;5059480;28;20051;-79
2024/03/24 04:04:33;;;;;;;1.48;1.02;;;;;;;;;;5060565;28;20479;-79
2024/03/24 04:06:58;;;;;;;2.20;1.52;;;;;;;;;;5069960;28;20154;-79
2024/03/24 04:09:24;;;;;;;2.95;0.98;;;;;;;;;;5075242;28;20036;-81
2024/03/24 04:11:49;;;;;;;3.50;1.70;;;;;;;;;;5053456;28;20043;-80
2024/03/24 04:14:15;;;;;;;3.70;1.58;;;;;;;;;;5077452;28;20040;-80
2024/03/24 04:16:41;;;;;;;2.95;1.30;;;;;;;;;;5060418;28;20135;-79
2024/03/24 04:19:07;;;;;;;1.70;1.20;;;;;;;;;;5057553;28;20108;-78
2024/03/24 04:21:33;;;;;;;1.63;1.52;;;;;;;;;;5068908;28;20554;-81
2024/03/24 04:23:58;;;;;;;3.40;1.67;;;;;;;;;;5078295;28;20122;-81
2024/03/24 04:26:24;;;;;;;0.30;0.30;;;;;;;;;;5065199;28;20036;-82
2024/03/24 04:28:49;;;;;;;3.05;1.50;;;;;;;;;;5070486;28;20482;-80
2024/03/24 04:31:14;;;;;;;2.35;1.65;;;;;;;;;;5058950;28;20048;-81
2024/03/24 04:33:40;;;;;;;4.55;1.60;;;;;;;;;;5075766;28;20222;-78
2024/03/24 04:36:05;;;;;;;1.58;0.88;;;;;;;;;;5040879;28;20040;-79
2024/03/24 04:38:31;;;;;;;2.35;1.70;;;;;;;;;;5051704;28;20042;-79
2024/03/24 04:40:56;;;;;;;4.32;2.25;;;;;;;;;;5069590;28;20039;-78
2024/03/24 04:43:22;;;;;;;3.15;1.83;;;;;;;;;;5067503;28;20032;-79
2024/03/24 04:45:47;;;;;;;2.63;1.83;;;;;;;;;;5055177;28;20090;-79
2024/03/24 04:48:12;;;;;;;4.15;1.65;;;;;;;;;;5062846;28;20528;-78
2024/03/24 04:50:38;;;;;;;3.13;1.50;;;;;;;;;;5062841;28;20024;-79
2024/03/24 04:53:03;;;;;;;3.00;2.00;;;;;;;;;;5063624;28;20040;-80
2024/03/24 04:55:29;;;;;;;1.92;1.15;;;;;;;;;;5082435;28;20567;-79
2024/03/24 04:57:54;;;;;;;5.30;1.77;;;;;;;;;;5069544;28;20032;-77
2024/03/24 05:00:20;;;;;;;1.23;0.85;;;;;;;;;;5079796;28;20097;-80
2024/03/24 05:02:46;;;;;;;5.05;2.33;;;;;;;;;;5074842;28;20043;-81
2024/03/24 05:05:12;;;;;;;3.45;1.92;;;;;;;;;;5075583;28;20131;-80
2024/03/24 05:07:37;;;;;;;3.90;1.67;;;;;;;;;;5063362;27;20133;-79
2024/03/24 05:10:03;;;;;;;3.08;2.20;;;;;;;;;;5066723;28;20687;-80
2024/03/24 05:12:28;;;;;;;3.67;1.98;;;;;;;;;;5070009;28;20047;-78
2024/03/24 05:14:53;;;;;;;2.40;1.95;;;;;;;;;;5062592;28;20063;-78
2024/03/24 05:17:19;;;;;;;3.75;1.92;;;;;;;;;;5083811;28;20512;-79
2024/03/24 05:19:44;;;;;;;1.98;1.83;;;;;;;;;;5081892;28;20039;-79
2024/03/24 05:22:10;;;;;;;2.53;1.70;;;;;;;;;;5073883;28;20438;-79
2024/03/24 05:24:35;;;;;;;3.20;1.98;;;;;;;;;;5064863;27;20040;-78
2024/03/24 05:27:04;;;;;;;1.23;1.10;;;;;;;;;;5081347;28;20587;-78
2024/03/24 05:29:30;;;;;;;4.15;1.73;;;;;;;;;;5074671;27;20039;-78
2024/03/24 05:31:57;;;;;;;2.75;1.58;;;;;;;;;;5078381;28;20165;-79
2024/03/24 05:34:23;;;;;;;3.05;1.73;;;;;;;;;;5069371;28;20152;-78
2024/03/24 05:36:48;;;;;;;2.95;1.80;;;;;;;;;;5069401;28;20029;-78
2024/03/24 05:39:14;;;;;;;1.25;1.15;;;;;;;;;;5070272;28;20044;-78
2024/03/24 05:41:39;;;;;;;4.18;2.17;;;;;;;;;;5063780;28;20512;-79
2024/03/24 05:44:05;;;;;;;3.15;1.63;;;;;;;;;;5061724;28;20055;-79
2024/03/24 05:46:30;;;;;;;5.30;1.95;;;;;;;;;;5069529;28;20110;-78
2024/03/24 05:48:57;;;;;;;3.25;1.83;;;;;;;;;;5076703;28;20424;-79
2024/03/24 05:51:22;;;;;;;2.83;1.77;;;;;;;;;;5069663;28;20040;-79
2024/03/24 05:53:48;;;;;;;1.52;0.93;;;;;;;;;;5064407;28;20105;-78
2024/03/24 05:56:14;;;;;;;3.53;1.88;;;;;;;;;;5051757;28;20554;-78
2024/03/24 05:58:40;;;;;;;2.80;1.35;;;;;;;;;;5050768;28;20036;-77
2024/03/24 06:01:05;;;;;;;2.65;1.75;;;;;;;;;;5065121;28;20074;-78
2024/03/24 06:03:30;;;;;;;0.50;0.50;;;;;;;;;;5051811;28;20643;-79
2024/03/24 06:05:56;;;;;;;5.85;2.08;;;;;;;;;;5068531;28;20528;-78
2024/03/24 06:08:23;;;;;;;2.30;1.55;;;;;;;;;;5070467;28;20043;-78
2024/03/24 06:10:48;;;;;;;0.52;0.52;;;;;;;;;;5072901;28;20055;-78
2024/03/24 06:13:14;;;;;;;2.40;1.50;;;;;;;;;;5069622;28;20040;-78
2024/03/24 06:15:39;;;;;;;2.58;1.90;;;;;;;;;;5053148;28;20036;-79
2024/03/24 06:18:06;;;;;;;3.90;1.75;;;;;;;;;;5070496;28;20603;-79
2024/03/24 06:20:33;;;;;;;1.58;1.30;;;;;;;;;;5073352;28;20040;-79
2024/03/24 06:23:02;;;;;;;3.92;1.83;;;;;;;;;;5050643;28;20754;-79
2024/03/24 06:25:28;;;;;;;0.70;0.70;;;;;;;;;;5070359;28;20036;-79
2024/03/24 06:27:55;;;;;;;1.48;1.20;;;;;;;;;;5066764;28;20036;-79
2024/03/24 06:30:20;;;;;;;2.28;1.52;;;;;;;;;;5048113;28;20056;-78
2024/03/24 06:32:46;;;;;;;3.35;2.10;;;;;;;;;;5063553;28;20033;-79
2024/03/24 06:35:11;;;;;;;2.03;1.38;;;;;;;;;;5079344;28;20161;-78
2024/03/24 06:37:38;;;;;;;1.15;0.82;;;;;;;;;;5057973;28;20040;-78
2024/03/24 06:40:07;;;;;;;1.38;1.25;;;;;;;;;;5073174;28;20062;-79
2024/03/24 06:42:35;;;;;;;3.95;1.58;;;;;;;;;;5063331;28;20029;-79
2024/03/24 06:45:08;;;;;;;2.60;1.65;;;;;;;;;;5077396;28;20046;-79
2024/03/24 06:47:33;;;;;;;3.92;2.05;;;;;;;;;;5047801;28;20041;-79
2024/03/24 06:49:58;;;;;;;1.00;0.90;;;;;;;;;;5055960;28;20105;-79
2024/03/24 06:52:24;;;;;;;3.63;2.58;;;;;;;;;;5064931;28;20037;-80
2024/03/24 06:54:49;;;;;;;1.85;1.65;;;;;;;;;;5084788;28;20086;-79
2024/03/24 06:57:15;;;;;;;2.65;1.98;;;;;;;;;;5078962;28;20500;-80
2024/03/24 06:59:40;;;;;;;2.92;1.65;;;;;;;;;;5086899;28;20032;-79
2024/03/24 07:02:06;;;;;;;2.35;1.83;;;;;;;;;;5078080;28;20044;-80
2024/03/24 07:04:31;;;;;;;4.68;1.67;;;;;;;;;;5070633;28;20059;-80
2024/03/24 07:06:57;;;;;;;3.95;2.13;;;;;;;;;;5075428;28;20039;-79
2024/03/24 07:09:23;;;;;;;3.55;1.88;;;;;;;;;;5076736;28;20041;-79
2024/03/24 07:11:48;;;;;;;3.40;1.63;;;;;;;;;;5051691;28;20042;-79
2024/03/24 07:14:13;;;;;;;3.35;1.52;;;;;;;;;;5068891;28;21275;-79
2024/03/24 07:16:39;;;;;;;4.00;2.00;;;;;;;;;;5071253;28;20432;-79
2024/03/24 07:19:04;;;;;;;4.05;2.45;;;;;;;;;;5068548;28;20036;-78
2024/03/24 07:21:29;;;;;;;4.05;1.85;;;;;;;;;;5054278;28;20038;-79
2024/03/24 07:23:55;;;;;;;2.67;1.55;;;;;;;;;;5081785;28;20063;-79
2024/03/24 07:26:20;;;;;;;1.95;1.10;;;;;;;;;;5077400;28;20090;-78
2024/03/24 07:28:45;;;;;;;2.13;1.27;;;;;;;;;;5053114;28;20033;-79
2024/03/24 07:31:11;;;;;;;3.58;2.05;;;;;;;;;;5062818;28;20052;-79
2024/03/24 07:33:36;;;;;;;3.55;2.15;;;;;;;;;;5060064;28;20035;-79
2024/03/24 07:36:01;;;;;;;3.45;2.03;;;;;;;;;;5060256;28;20893;-78
2024/03/24 07:38:27;;;;;;;3.47;1.50;;;;;;;;;;5067779;28;20866;-78
2024/03/24 07:40:53;;;;;;;4.13;1.70;;;;;;;;;;5071494;28;20044;-78
2024/03/24 07:43:18;;;;;;;1.83;1.17;;;;;;;;;;5059304;28;20123;-78
2024/03/24 07:45:43;;;;;;;1.92;1.35;;;;;;;;;;5081965;28;20067;-79
2024/03/24 07:48:10;;;;;;;1.92;0.90;;;;;;;;;;5070397;28;20032;-77
2024/03/24 07:50:37;;;;;;;1.75;1.48;;;;;;;;;;5075839;28;20134;-79
2024/03/24 07:53:02;;;;;;;2.00;1.30;;;;;;;;;;5074242;28;20040;-79
2024/03/24 07:55:28;;;;;;;2.00;1.65;;;;;;;;;;5064100;28;20126;-77
2024/03/24 07:57:53;;;;;;;2.53;1.20;;;;;;;;;;5056152;28;20063;-79
2024/03/24 08:00:19;;;;;;;2.03;1.48;;;;;;;;;;5071146;28;20039;-80
2024/03/24 08:02:44;;;;;;;4.38;1.80;;;;;;;;;;5075756;28;20181;-80
2024/03/24 08:05:09;;;;;;;3.30;2.08;;;;;;;;;;5080197;28;20040;-80
2024/03/24 08:07:35;;;;;;;2.83;1.63;;;;;;;;;;5057363;28;20393;-81
2024/03/24 08:10:00;;;;;;;2.75;0.80;;;;;;;;;;5056691;28;20123;-79
2024/03/24 08:12:25;;;;;;;1.63;1.02;;;;;;;;;;5079248;28;20095;-80
2024/03/24 08:14:51;;;;;;;3.67;1.90;;;;;;;;;;5067306;28;20039;-79
2024/03/24 08:17:16;;;;;;;2.00;1.38;;;;;;;;;;5077096;28;20036;-79
2024/03/24 08:19:42;;;;;;;2.00;1.60;;;;;;;;;;5072010;28;20079;-80
2024/03/24 08:22:07;;;;;;;3.85;1.90;;;;;;;;;;5050890;28;20415;-80
2024/03/24 08:24:32;;;;;;;3.45;1.60;;;;;;;;;;5080456;28;20105;-79
2024/03/24 08:26:58;;;;;;;3.42;1.80;;;;;;;;;;5069731;28;20034;-79
2024/03/24 08:29:23;;;;;;;3.60;1.35;;;;;;;;;;5071062;28;20226;-79
2024/03/24 08:31:48;;;;;;;3.05;1.83;;;;;;;;;;5043918;28;20056;-79
2024/03/24 08:34:14;;;;;;;2.55;1.67;;;;;;;;;;5057471;28;20040;-79
2024/03/24 08:36:39;;;;;;;2.75;1.73;;;;;;;;;;5066047;28;20085;-79
2024/03/24 08:39:04;;;;;;;3.08;1.20;;;;;;;;;;5060205;28;20036;-79
2024/03/24 08:41:30;;;;;;;2.10;1.35;;;;;;;;;;5059213;28;20112;-79
2024/03/24 08:43:55;;;;;;;2.97;1.85;;;;;;;;;;5072251;28;20053;-79
2024/03/24 08:46:21;;;;;;;1.58;1.33;;;;;;;;;;5074048;28;20119;-79
2024/03/24 08:48:48;;;;;;;1.63;1.38;;;;;;;;;;5066052;28;20689;-79
2024/03/24 08:51:14;;;;;;;1.65;1.23;;;;;;;;;;5058935;28;20555;-79
2024/03/24 08:53:40;;;;;;;2.20;1.90;;;;;;;;;;5059762;28;20040;-79
2024/03/24 08:56:06;;;;;;;1.13;0.90;;;;;;;;;;5065070;28;20032;-78
2024/03/24 08:58:31;;;;;;;2.35;1.05;;;;;;;;;;5078057;28;20509;-78
2024/03/24 09:00:57;;;;;;;1.70;1.13;;;;;;;;;;5075818;28;20700;-78
2024/03/24 09:03:22;;;;;;;1.40;0.85;;;;;;;;;;5069298;28;20039;-78
2024/03/24 09:05:47;;;;;;;1.50;0.77;;;;;;;;;;5064284;28;20040;-78
2024/03/24 09:08:13;;;;;;;2.85;0.88;;;;;;;;;;5061656;28;20037;-79
2024/03/24 09:10:38;;;;;;;0.90;0.80;;;;;;;;;;5049298;28;20031;-79
2024/03/24 09:13:04;;;;;;;0.95;0.80;;;;;;;;;;5060747;28;20028;-79
2024/03/24 09:15:30;;;;;;;1.50;0.73;;;;;;;;;;5066185;28;20047;-78
2024/03/24 09:17:55;;;;;;;1.17;0.70;;;;;;;;;;5071946;28;20758;-78
2024/03/24 09:20:20;;;;;;;0.88;0.70;;;;;;;;;;5070299;28;20040;-78
2024/03/24 09:22:46;;;;;;;0.60;0.60;;;;;;;;;;5054843;28;20067;-78
2024/03/24 09:25:11;;;;;;;1.88;0.52;;;;;;;;;;5045137;28;20040;-77
2024/03/24 09:27:37;;;;;;;1.40;0.70;;;;;;;;;;5066821;28;20085;-78
2024/03/24 09:30:02;;;;;;;2.50;0.90;;;;;;;;;;5073894;28;20032;-78
2024/03/24 09:32:28;;;;;;;0.65;0.60;;;;;;;;;;5075818;28;20050;-78
2024/03/24 09:34:53;;;;;;;0.60;0.45;;;;;;;;;;5066008;28;20071;-77
2024/03/24 09:37:18;;;;;;;0.80;0.70;;;;;;;;;;5047435;28;20109;-77
2024/03/24 09:39:44;;;;;;;0.30;0.30;;;;;;;;;;5062691;28;20028;-76
2024/03/24 09:42:15;;;;;;;0.82;0.82;;;;;;;;;;5075508;28;20097;-78
2024/03/24 09:44:41;;;;;;;0.95;0.63;;;;;;;;;;5073342;28;20055;-76
2024/03/24 09:47:07;;;;;;;0.90;0.73;;;;;;;;;;5069344;28;20065;-77
2024/03/24 09:49:32;;;;;;;0.98;0.85;;;;;;;;;;5074502;28;20502;-76
2024/03/24 09:52:00;;;;;;;0.63;0.63;;;;;;;;;;5073199;28;20051;-78
2024/03/24 09:54:25;;;;;;;1.40;0.50;;;;;;;;;;5075336;28;20035;-76
2024/03/24 09:56:51;;;;;;;0.60;0.57;;;;;;;;;;5052886;28;20448;-75
2024/03/24 09:59:16;;;;;;;0.80;0.40;;;;;;;;;;5059765;28;20578;-78
2024/03/24 10:01:44;;;;;;;2.20;0.73;;;;;;;;;;5055413;28;20123;-78
2024/03/24 10:04:10;;;;;;;2.90;0.60;;;;;;;;;;5069706;28;20119;-78
2024/03/24 10:06:36;;;;;;;0.68;0.47;;;;;;;;;;5061720;28;20033;-76
2024/03/24 10:09:03;;;;;;;0.40;0.40;;;;;;;;;;5066799;28;20105;-77
2024/03/24 10:11:31;;;;;;;0.75;0.40;;;;;;;;;;5065444;28;20039;-76
2024/03/24 10:13:58;;;;;;;0.40;0.40;;;;;;;;;;5058865;28;20036;-77
2024/03/24 10:16:24;;;;;;;0.60;0.60;;;;;;;;;;5052339;28;20061;-77
2024/03/24 10:18:51;;;;;;;0.45;0.43;;;;;;;;;;5066330;28;20158;-77
2024/03/24 10:21:17;;;;;;;0.45;0.40;;;;;;;;;;5077583;28;20028;-77
2024/03/24 10:23:44;;;;;;;1.88;0.80;;;;;;;;;;5073080;28;20062;-77
2024/03/24 10:26:09;;;;;;;1.17;0.60;;;;;;;;;;5069395;28;20067;-77
2024/03/24 10:28:35;;;;;;;1.45;0.70;;;;;;;;;;5063116;28;20098;-77
2024/03/24 10:31:05;;;;;;;0.80;0.60;;;;;;;;;;5054248;28;20032;-77
2024/03/24 10:33:37;;;;;;;0.35;0.30;;;;;;;;;;5070608;28;20070;-77
2024/03/24 10:36:03;;;;;;;1.05;0.70;;;;;;;;;;5074361;28;20043;-77
2024/03/24 10:38:29;;;;;;;2.85;0.63;;;;;;;;;;5056344;28;20079;-77
2024/03/24 10:40:58;;;;;;;0.52;0.50;;;;;;;;;;5051242;28;20036;-76
2024/03/24 10:43:26;;;;;;;1.13;0.70;;;;;;;;;;5064030;28;20420;-77
2024/03/24 10:45:53;;;;;;;1.40;0.77;;;;;;;;;;5048490;28;20037;-79
2024/03/24 10:48:26;;;;;;;0.90;0.60;;;;;;;;;;5065344;28;20032;-78
2024/03/24 10:50:53;;;;;;;0.60;0.50;;;;;;;;;;5063176;28;20484;-77
2024/03/24 10:53:23;;;;;;;0.73;0.60;;;;;;;;;;5060858;28;20100;-77
2024/03/24 10:55:51;;;;;;;0.68;0.68;;;;;;;;;;5065992;28;20051;-78
2024/03/24 10:58:19;;;;;;;1.38;0.75;;;;;;;;;;5068230;28;20033;-77
2024/03/24 11:00:45;;;;;;;0.85;0.82;;;;;;;;;;5057826;28;20031;-77
2024/03/24 11:03:12;;;;;;;1.80;0.70;;;;;;;;;;5069100;28;20032;-76
2024/03/24 11:05:39;;;;;;;1.00;0.95;;;;;;;;;;5059922;28;20064;-78
2024/03/24 11:08:06;;;;;;;0.80;0.80;;;;;;;;;;5058454;28;20105;-78
2024/03/24 11:10:33;;;;;;;0.55;0.55;;;;;;;;;;5056551;28;20400;-77
2024/03/24 11:12:59;;;;;;;1.35;0.80;;;;;;;;;;5074318;28;20134;-77
2024/03/24 11:15:24;;;;;;;1.90;0.68;;;;;;;;;;5074884;28;20119;-78
2024/03/24 11:17:51;;;;;;;1.00;0.90;;;;;;;;;;5057618;28;20028;-78
2024/03/24 11:20:20;;;;;;;2.15;0.80;;;;;;;;;;5069712;28;20047;-78
2024/03/24 11:22:48;;;;;;;2.88;1.45;;;;;;;;;;5061972;28;20496;-75
2024/03/24 11:25:18;;;;;;;0.65;0.65;;;;;;;;;;5069593;28;20119;-78
2024/03/24 11:27:43;;;;;;;1.98;0.70;;;;;;;;;;5071740;28;20508;-78
2024/03/24 11:30:15;;;;;;;1.00;0.90;;;;;;;;;;5075996;28;20046;-78
2024/03/24 11:32:55;;;;;;;1.08;0.70;;;;;;;;;;5064372;28;20666;-76
2024/03/24 11:35:27;;;;;;;1.60;0.90;;;;;;;;;;5063700;28;20033;-78
2024/03/24 11:37:54;;;;;;;0.30;0.30;;;;;;;;;;5057800;28;20444;-77
2024/03/24 11:40:24;;;;;;;1.02;0.70;;;;;;;;;;5066216;28;20042;-76
2024/03/24 11:42:55;;;;;;;2.22;0.77;;;;;;;;;;5074451;28;20129;-77
2024/03/24 11:45:27;;;;;;;1.63;0.70;;;;;;;;;;5069932;28;20158;-77
2024/03/24 11:48:15;;;;;;;0.90;0.50;;;;;;;;;;5052036;28;20402;-76
2024/03/24 11:50:43;;;;;;;1.98;0.60;;;;;;;;;;5070546;28;20038;-77
2024/03/24 11:53:10;;;;;;;1.00;0.90;;;;;;;;;;5063179;28;20681;-78
2024/03/24 11:55:38;;;;;;;1.20;1.00;;;;;;;;;;5056263;28;20048;-77
2024/03/24 11:58:04;;;;;;;1.42;0.80;;;;;;;;;;5042061;28;20028;-77
2024/03/24 12:00:30;;;;;;;2.35;0.98;;;;;;;;;;5053316;28;20153;-77
2024/03/24 12:02:55;;;;;;;0.60;0.60;;;;;;;;;;5066713;28;20043;-76
2024/03/24 12:05:21;;;;;;;1.02;0.20;;;;;;;;;;5067856;28;20036;-77
2024/03/24 12:07:48;;;;;;;0.98;0.80;;;;;;;;;;5072933;28;20105;-76
2024/03/24 12:10:14;;;;;;;0.88;0.50;;;;;;;;;;5071529;28;20040;-77
2024/03/24 12:12:41;;;;;;;2.45;0.93;;;;;;;;;;5067580;28;20394;-77
2024/03/24 12:15:06;;;;;;;1.63;0.60;;;;;;;;;;5077052;28;20039;-79
2024/03/24 12:17:32;;;;;;;1.23;0.98;;;;;;;;;;5052346;28;20048;-79
2024/03/24 12:19:58;;;;;;;1.65;0.98;;;;;;;;;;5050037;28;20043;-78
2024/03/24 12:22:23;;;;;;;1.25;0.82;;;;;;;;;;5060935;28;20036;-76
2024/03/24 12:24:52;;;;;;;1.33;0.98;;;;;;;;;;5069969;28;20063;-78
2024/03/24 12:27:19;;;;;;;1.20;0.80;;;;;;;;;;5056731;28;20039;-77
2024/03/24 12:29:52;;;;;;;1.27;0.75;;;;;;;;;;5041509;28;20143;-78
2024/03/24 12:32:17;;;;;;;1.58;0.80;;;;;;;;;;5057493;28;20532;-78
2024/03/24 12:34:45;;;;;;;0.80;0.80;;;;;;;;;;5045587;28;20036;-77
2024/03/24 12:37:11;;;;;;;2.25;1.15;;;;;;;;;;5077922;28;20471;-78
2024/03/24 12:39:36;;;;;;;1.17;0.90;;;;;;;;;;5081669;28;20040;-78
2024/03/24 12:42:12;;;;;;;1.45;1.05;;;;;;;;;;5067500;28;20295;-77
2024/03/24 12:44:37;;;;;;;1.23;0.93;;;;;;;;;;5073260;28;20055;-77
2024/03/24 12:47:15;;;;;;;2.92;1.10;;;;;;;;;;5068956;28;20036;-78
2024/03/24 12:49:41;;;;;;;0.43;0.38;;;;;;;;;;5042640;28;20118;-77
2024/03/24 12:52:07;;;;;;;1.98;1.50;;;;;;;;;;5055853;28;20040;-77
2024/03/24 12:54:33;;;;;;;1.88;1.15;;;;;;;;;;5067130;28;20080;-77
2024/03/24 12:56:59;;;;;;;1.27;0.93;;;;;;;;;;5061653;28;20051;-78
2024/03/24 12:59:38;;;;;;;1.98;0.75;;;;;;;;;;5066055;28;20052;-78
2024/03/24 13:02:07;;;;;;;3.08;1.10;;;;;;;;;;5055008;28;20102;-77
2024/03/24 13:04:32;;;;;;;5.00;2.30;;;;;;;;;;5061803;28;20202;-78
2024/03/24 13:07:00;;;;;;;6.70;2.50;;;;;;;;;;5071224;28;20056;-78
2024/03/24 13:09:31;;;;;;;2.13;1.58;;;;;;;;;;5072502;28;20146;-77
2024/03/24 13:11:57;;;;;;;3.85;1.70;;;;;;;;;;5079538;28;20032;-77
2024/03/24 13:14:22;;;;;;;4.32;2.22;;;;;;;;;;5062523;28;20199;-77
2024/03/24 13:17:09;;;;;;;4.43;1.33;;;;;;;;;;5072178;28;20040;-77
2024/03/24 13:19:55;;;;;;;1.92;1.58;;;;;;;;;;5059206;28;20051;-77
2024/03/24 13:22:21;;;;;;;9.75;5.07;;;;;;;;;;5077819;28;20039;-76
2024/03/24 13:24:52;;;;;;;6.18;2.88;;;;;;;;;;5075867;28;20047;-76
2024/03/24 13:27:26;;;;;;;3.70;1.33;;;;;;;;;;5070674;28;20123;-76
2024/03/24 13:29:52;;;;;;;4.68;2.60;;;;;;;;;;5059849;28;20284;-76
2024/03/24 13:32:17;;;;;;;1.25;1.15;;;;;;;;;;5046816;28;20032;-76
2024/03/24 13:34:43;;;;;;;3.03;1.17;;;;;;;;;;5076739;28;20030;-76
2024/03/24 13:37:33;;;;;;;2.05;1.67;;;;;;;;;;5078517;28;20517;-76
2024/03/24 13:40:23;;;;;;;1.10;1.00;;;;;;;;;;5061829;28;20036;-76
2024/03/24 13:43:15;;;;;;;1.42;1.10;;;;;;;;;;5065778;28;20031;-76
2024/03/24 13:45:53;;;;;;;1.42;1.15;;;;;;;;;;5053303;28;20532;-75
2024/03/24 13:48:19;;;;;;;1.25;1.15;;;;;;;;;;5069766;28;20036;-77
2024/03/24 13:50:45;;;;;;;2.17;1.00;;;;;;;;;;5061389;28;20404;-76
2024/03/24 13:53:12;;;;;;;1.20;1.10;;;;;;;;;;5072068;28;20047;-77
2024/03/24 13:55:38;;;;;;;1.25;0.90;;;;;;;;;;5074580;28;20032;-76
2024/03/24 13:58:03;;;;;;;1.27;1.17;;;;;;;;;;5026310;28;20037;-75
2024/03/24 14:00:29;;;;;;;4.07;1.27;;;;;;;;;;5075356;28;20743;-77
2024/03/24 14:02:57;;;;;;;2.08;1.55;;;;;;;;;;5047214;28;20206;-76
2024/03/24 14:05:28;;;;;;;2.83;1.63;;;;;;;;;;5053645;28;20670;-77
2024/03/24 14:07:54;;;;;;;1.88;1.27;;;;;;;;;;5056095;28;20028;-77
2024/03/24 14:10:20;;;;;;;2.53;1.58;;;;;;;;;;5059465;28;20035;-78
2024/03/24 14:13:07;;;;;;;3.38;2.17;;;;;;;;;;5045959;28;20045;-78
2024/03/24 14:16:08;;;;;;;4.15;2.20;;;;;;;;;;5068737;28;20048;-77
2024/03/24 14:18:56;;;;;;;2.50;1.73;;;;;;;;;;5063194;28;20044;-77
2024/03/24 14:21:33;;;;;;;1.90;1.02;;;;;;;;;;5066111;28;20044;-77
2024/03/24 14:24:10;;;;;;;3.25;1.67;;;;;;;;;;5066228;28;20051;-78
2024/03/24 14:26:39;;;;;;;1.65;1.08;;;;;;;;;;5054022;28;20520;-78
2024/03/24 14:29:04;;;;;;;7.32;1.40;;;;;;;;;;5069184;28;20032;-78
2024/03/24 14:31:30;;;;;;;2.05;1.25;;;;;;;;;;5072666;28;20024;-79
2024/03/24 14:33:55;;;;;;;2.33;1.95;;;;;;;;;;5058471;28;20037;-79
2024/03/24 14:36:39;;;;;;;1.35;0.98;;;;;;;;;;5044337;28;20044;-79
2024/03/24 14:39:41;;;;;;;1.30;1.20;;;;;;;;;;5057816;28;20041;-80
2024/03/24 14:42:24;;;;;;;2.70;1.40;;;;;;;;;;5042103;28;20116;-80